Chicago, Illinois
Traffic Map
Current Weather Conditions
Chicago, Illinois
Overcast
Overcast
63°
Feels Like: 63°
Wind Chill: 63° Ceiling: 3800
Heat Index: 63° Visibility: 10mi
Dew Point: 60° Wind: 8mph
Humidity: 90% Direction: 340° (NNW)
Pressure: 29.71in Gusts: 0mph
Raw Report DataKMDW 230924Z 34007KT 10SM SCT019 OVC038 17/16 A2971 RMK AO2 T01720156
Traffic Incident Summary
Active as of:
Severity:
Category:
InformationThere was an issue retrieving the traffic information for this location. Please try a different location or try again shortly.
Advertisements